createdAt,value
2022-09-10T00:00:17.928Z,100845.19
2022-09-10T00:02:48.017Z,100848.72
2022-09-10T00:05:18.281Z,100837.19
2022-09-10T00:07:50.559Z,100831.88
2022-09-10T00:10:20.445Z,100839.00
2022-09-10T00:12:51.350Z,100840.78
2022-09-10T00:15:21.197Z,100838.09
2022-09-10T00:17:50.966Z,100847.88
2022-09-10T00:20:20.857Z,100843.44
2022-09-10T00:22:54.089Z,100854.09
2022-09-10T00:25:23.763Z,100838.13
2022-09-10T00:27:53.445Z,100851.41
2022-09-10T00:30:23.167Z,100846.97
2022-09-10T00:32:53.299Z,100851.44
2022-09-10T00:35:23.024Z,100860.31
2022-09-10T00:37:55.293Z,100855.88
2022-09-10T00:40:25.632Z,100853.22
2022-09-10T00:42:55.410Z,100863.84
2022-09-10T00:45:27.872Z,100856.75
2022-09-10T00:48:01.808Z,100859.41
2022-09-10T00:50:34.658Z,100847.91
2022-09-10T00:53:11.438Z,100847.91
2022-09-10T00:55:44.140Z,100847.91
2022-09-10T00:58:16.612Z,100850.56
2022-09-10T01:00:46.287Z,100845.25
2022-09-10T01:03:21.469Z,100857.72
2022-09-10T01:05:55.103Z,100856.84
2022-09-10T01:08:27.576Z,100854.19
2022-09-10T01:11:11.371Z,100856.00
2022-09-10T01:13:54.359Z,100860.41
2022-09-10T01:16:30.873Z,100866.63
2022-09-10T01:19:13.082Z,100864.84
2022-09-10T01:21:49.680Z,100859.53
2022-09-10T01:24:44.010Z,100856.88
2022-09-10T01:27:40.862Z,100863.09
2022-09-10T01:30:14.927Z,100860.41
2022-09-10T01:33:00.601Z,100860.41
2022-09-10T01:35:34.540Z,100863.06
2022-09-10T01:38:09.508Z,100856.84
2022-09-10T01:40:40.220Z,100864.88
2022-09-10T01:43:13.943Z,100855.09
2022-09-10T01:45:55.097Z,100859.56
2022-09-10T01:48:47.723Z,100858.66
2022-09-10T01:51:25.667Z,100864.88
2022-09-10T01:54:11.647Z,100860.41
2022-09-10T01:56:49.430Z,100863.97
2022-09-10T01:59:31.142Z,100858.66
2022-09-10T02:02:05.371Z,100863.97
2022-09-10T02:04:36.761Z,100860.41
2022-09-10T02:07:08.715Z,100859.53
2022-09-10T02:09:39.329Z,100859.53
2022-09-10T02:12:10.202Z,100859.50
2022-09-10T02:14:43.181Z,100850.66
2022-09-10T02:17:13.041Z,100860.41
2022-09-10T02:19:43.222Z,100852.44
2022-09-10T02:22:14.310Z,100853.31
2022-09-10T02:24:44.380Z,100855.00
2022-09-10T02:27:15.100Z,100861.22
2022-09-10T02:29:47.398Z,100863.88
2022-09-10T02:32:17.442Z,100864.78
2022-09-10T02:34:47.148Z,100855.06
2022-09-10T02:37:16.946Z,100864.81
2022-09-10T02:39:46.995Z,100860.41
2022-09-10T02:42:18.090Z,100869.25
2022-09-10T02:44:50.419Z,100870.97
2022-09-10T02:47:20.083Z,100872.75
2022-09-10T02:49:49.714Z,100870.97
2022-09-10T02:52:19.639Z,100871.84
2022-09-10T02:54:49.298Z,100871.84
2022-09-10T02:57:18.966Z,100870.09
2022-09-10T02:59:51.235Z,100874.50
2022-09-10T03:02:21.263Z,100878.97
2022-09-10T03:04:50.966Z,100879.84
2022-09-10T03:07:20.899Z,100877.16
2022-09-10T03:09:50.839Z,100868.28
2022-09-10T03:12:21.969Z,100876.28
2022-09-10T03:14:54.236Z,100873.63
2022-09-10T03:17:24.099Z,100885.16
2022-09-10T03:19:53.843Z,100882.50
2022-09-10T03:22:23.520Z,100882.50
2022-09-10T03:24:54.297Z,100876.28
2022-09-10T03:27:24.064Z,100873.63
2022-09-10T03:29:56.376Z,100886.91
2022-09-10T03:32:26.190Z,100885.16
2022-09-10T03:34:55.948Z,100877.16
2022-09-10T03:37:25.650Z,100878.03
2022-09-10T03:39:55.373Z,100879.84
2022-09-10T03:42:25.217Z,100872.72
2022-09-10T03:44:57.477Z,100877.16
2022-09-10T03:47:30.064Z,100875.41
2022-09-10T03:50:00.075Z,100879.84
2022-09-10T03:52:30.179Z,100872.72
2022-09-10T03:54:59.945Z,100878.06
2022-09-10T03:57:29.600Z,100880.69
2022-09-10T04:00:01.892Z,100880.72
2022-09-10T04:02:31.610Z,100884.22
2022-09-10T04:05:01.288Z,100878.91
2022-09-10T04:07:30.979Z,100878.03
2022-09-10T04:10:00.650Z,100880.72
2022-09-10T04:12:30.407Z,100879.78
2022-09-10T04:15:04.717Z,100882.44
2022-09-10T04:17:34.918Z,100878.91
2022-09-10T04:20:05.030Z,100876.25
2022-09-10T04:22:34.723Z,100878.03
2022-09-10T04:25:04.469Z,100886.03
2022-09-10T04:27:34.125Z,100889.53
2022-09-10T04:30:06.895Z,100893.09
2022-09-10T04:32:36.780Z,100895.75
2022-09-10T04:35:07.732Z,100893.97
2022-09-10T04:37:37.469Z,100901.03
2022-09-10T04:40:08.679Z,100904.63
2022-09-10T04:42:38.338Z,100910.81
2022-09-10T04:45:12.937Z,100916.09
2022-09-10T04:47:42.604Z,100904.56
2022-09-10T04:50:12.946Z,100908.97
2022-09-10T04:52:43.396Z,100920.53
2022-09-10T04:55:13.699Z,100915.19
2022-09-10T04:57:43.352Z,100919.66
2022-09-10T05:00:16.586Z,100924.06
2022-09-10T05:02:46.766Z,100916.06
2022-09-10T05:05:16.737Z,100918.72
2022-09-10T05:07:46.399Z,100928.44
2022-09-10T05:10:16.150Z,100927.59
2022-09-10T05:12:45.844Z,100923.13
2022-09-10T05:15:18.333Z,100930.25
2022-09-10T05:17:48.113Z,100928.47
2022-09-10T05:20:18.038Z,100926.72
2022-09-10T05:22:47.732Z,100929.38
2022-09-10T05:25:17.958Z,100927.59
2022-09-10T05:27:48.425Z,100924.94
2022-09-10T05:30:21.231Z,100931.16
2022-09-10T05:32:53.645Z,100924.06
2022-09-10T05:35:23.329Z,100932.91
2022-09-10T05:37:53.191Z,100931.16
2022-09-10T05:40:23.549Z,100924.06
2022-09-10T05:42:53.227Z,100934.69
2022-09-10T05:45:26.105Z,100936.47
2022-09-10T05:47:55.961Z,100938.22
2022-09-10T05:50:25.691Z,100935.56
2022-09-10T05:52:55.347Z,100932.88
2022-09-10T05:55:25.239Z,100931.09
2022-09-10T05:57:55.942Z,100933.78
2022-09-10T06:00:28.419Z,100946.19
2022-09-10T06:02:58.144Z,100941.78
2022-09-10T06:05:28.415Z,100950.63
2022-09-10T06:07:58.084Z,100945.28
2022-09-10T06:10:27.824Z,100954.16
2022-09-10T06:12:57.507Z,100961.22
2022-09-10T06:15:29.744Z,100969.22
2022-09-10T06:17:59.614Z,100974.53
2022-09-10T06:20:29.732Z,100969.22
2022-09-10T06:22:59.440Z,100966.56
2022-09-10T06:25:29.117Z,100972.78
2022-09-10T06:27:58.848Z,100981.69
2022-09-10T06:30:31.316Z,100975.44
2022-09-10T06:33:01.172Z,100983.44
2022-09-10T06:35:31.469Z,100987.00
2022-09-10T06:38:02.107Z,100987.91
2022-09-10T06:40:33.002Z,100990.59
2022-09-10T06:43:04.324Z,100986.16
2022-09-10T06:45:36.628Z,100987.91
2022-09-10T06:50:58.132Z,100990.59
2022-09-10T06:53:33.417Z,100998.59
2022-09-10T06:56:03.757Z,100998.59
2022-09-10T06:58:35.267Z,100992.38
2022-09-10T07:01:14.837Z,101000.38
2022-09-10T07:03:45.814Z,100996.88
2022-09-10T07:06:17.366Z,101003.97
2022-09-10T07:08:47.554Z,101005.81
2022-09-10T07:11:18.724Z,101004.97
2022-09-10T07:13:53.395Z,101004.09
2022-09-10T07:16:27.403Z,101015.63
2022-09-10T07:18:59.221Z,101021.81
2022-09-10T07:21:31.012Z,101021.84
2022-09-10T07:24:02.059Z,101024.50
2022-09-10T07:26:32.316Z,101021.88
2022-09-10T07:29:02.709Z,101028.09
2022-09-10T07:31:38.335Z,101034.34
2022-09-10T07:34:08.752Z,101029.03
2022-09-10T07:36:38.444Z,101025.50
2022-09-10T07:39:08.166Z,101031.72
2022-09-10T07:41:37.892Z,101037.94
2022-09-10T07:44:07.715Z,101038.88
2022-09-10T07:46:40.568Z,101037.09
2022-09-10T07:49:12.192Z,101046.03
2022-09-10T07:51:42.847Z,101042.47
2022-09-10T07:54:16.443Z,101042.47
2022-09-10T07:56:46.306Z,101045.16
2022-09-10T07:59:16.213Z,101044.25
2022-09-10T08:01:50.709Z,101050.50
2022-09-10T08:04:20.394Z,101049.63
2022-09-10T08:06:50.096Z,101054.06
2022-09-10T08:09:20.615Z,101053.19
2022-09-10T08:11:50.301Z,101062.09
2022-09-10T08:14:20.227Z,101064.78
2022-09-10T08:16:52.716Z,101068.34
2022-09-10T08:19:22.400Z,101071.91
2022-09-10T08:21:52.037Z,101075.50
2022-09-10T08:24:21.968Z,101074.63
2022-09-10T08:26:52.871Z,101087.03
2022-09-10T08:29:23.389Z,101093.25
2022-09-10T08:31:55.708Z,101091.47
2022-09-10T08:34:26.427Z,101100.38
2022-09-10T08:36:56.089Z,101099.50
2022-09-10T08:39:25.767Z,101101.25
2022-09-10T08:42:00.524Z,101105.72
2022-09-10T08:44:38.795Z,101113.69
2022-09-10T08:47:23.926Z,101110.97
2022-09-10T08:49:56.955Z,101118.06
2022-09-10T08:52:31.544Z,101121.63
2022-09-10T08:55:07.916Z,101119.81
2022-09-10T08:57:45.269Z,101122.47
2022-09-10T09:00:21.083Z,101126.03
2022-09-10T09:03:02.332Z,101133.13
2022-09-10T09:05:42.218Z,101127.75
2022-09-10T09:08:15.232Z,101134.00
2022-09-10T09:10:51.190Z,101129.56
2022-09-10T09:13:42.265Z,101131.28
2022-09-10T09:16:29.340Z,101135.69
2022-09-10T09:19:17.381Z,101133.84
2022-09-10T09:21:54.845Z,101140.06
2022-09-10T09:24:27.000Z,101140.03
2022-09-10T09:27:03.079Z,101143.56
2022-09-10T09:29:38.286Z,101144.47
2022-09-10T09:32:09.367Z,101150.69
2022-09-10T09:34:45.148Z,101156.03
2022-09-10T09:37:20.964Z,101158.69
2022-09-10T09:40:04.980Z,101157.84
2022-09-10T09:42:43.166Z,101156.97
2022-09-10T09:45:25.287Z,101155.22
2022-09-10T09:47:55.369Z,101163.25
2022-09-10T09:50:27.762Z,101158.84
2022-09-10T09:52:59.733Z,101166.84
2022-09-10T09:55:33.864Z,101164.25
2022-09-10T09:58:32.433Z,101172.31
2022-09-10T10:01:20.977Z,101164.38
2022-09-10T10:03:54.668Z,101166.19
2022-09-10T10:06:29.433Z,101161.78
2022-09-10T10:09:02.386Z,101168.03
2022-09-10T10:11:48.623Z,101166.28
2022-09-10T10:14:41.632Z,101167.19
2022-09-10T10:17:39.865Z,101165.41
2022-09-10T10:20:13.188Z,101171.63
2022-09-10T10:22:46.571Z,101165.44
2022-09-10T10:25:38.439Z,101172.53
2022-09-10T10:28:18.385Z,101173.44
2022-09-10T10:30:55.061Z,101171.69
2022-09-10T10:33:30.758Z,101168.16
2022-09-10T10:36:13.390Z,101174.41
2022-09-10T10:38:50.336Z,101174.44
2022-09-10T10:41:44.824Z,101164.66
2022-09-10T10:44:27.819Z,101168.22
2022-09-10T10:47:07.643Z,101176.25
2022-09-10T10:49:52.294Z,101178.09
2022-09-10T10:52:31.895Z,101169.19
2022-09-10T10:55:15.862Z,101170.09
2022-09-10T10:58:17.280Z,101172.78
2022-09-10T11:00:51.568Z,101161.19
2022-09-10T11:03:28.117Z,101168.28
2022-09-10T11:06:04.021Z,101155.84
2022-09-10T11:08:38.871Z,101156.75
2022-09-10T11:11:16.106Z,101151.38
2022-09-10T11:13:50.641Z,101161.19
2022-09-10T11:16:25.942Z,101156.72
2022-09-10T11:19:03.368Z,101151.38
2022-09-10T11:21:38.809Z,101154.03
2022-09-10T11:24:17.466Z,101152.25
2022-09-10T11:26:54.421Z,101157.63
2022-09-10T11:29:38.009Z,101158.50
2022-09-10T11:32:15.442Z,101152.28
2022-09-10T11:34:55.094Z,101153.16
2022-09-10T11:37:37.521Z,101160.25
2022-09-10T11:40:16.103Z,101157.63
2022-09-10T11:42:53.760Z,101154.94
2022-09-10T11:45:30.852Z,101154.91
2022-09-10T11:48:04.664Z,101148.69
2022-09-10T11:50:40.880Z,101154.03
2022-09-10T11:53:19.635Z,101148.69
2022-09-10T11:56:02.698Z,101157.59
2022-09-10T11:58:46.156Z,101153.16
2022-09-10T12:01:26.088Z,101163.81
2022-09-10T12:04:15.366Z,101162.06
2022-09-10T12:06:53.927Z,101169.16
2022-09-10T12:09:30.457Z,101163.81
2022-09-10T12:12:07.962Z,101167.38
2022-09-10T12:14:41.595Z,101170.97
2022-09-10T12:17:17.896Z,101162.97
2022-09-10T12:19:50.960Z,101163.84
2022-09-10T12:22:24.112Z,101159.38
2022-09-10T12:24:56.538Z,101169.19
2022-09-10T12:27:47.749Z,101168.28
2022-09-10T12:30:59.181Z,101172.75
2022-09-10T12:34:17.864Z,101170.97
2022-09-10T12:37:21.668Z,101169.16
2022-09-10T12:39:52.369Z,101174.50
2022-09-10T12:42:37.029Z,101175.38
2022-09-10T12:45:07.248Z,101185.13
2022-09-10T12:47:54.751Z,101187.81
2022-09-10T12:50:46.558Z,101192.22
2022-09-10T12:53:36.237Z,101187.75
2022-09-10T12:56:32.706Z,101196.69
2022-09-10T12:59:24.506Z,101195.78
2022-09-10T13:01:54.874Z,101192.25
2022-09-10T13:04:31.424Z,101201.16
2022-09-10T13:07:07.634Z,101200.25
2022-09-10T13:09:43.785Z,101198.47
2022-09-10T13:12:21.227Z,101201.13
2022-09-10T13:14:54.267Z,101198.47
2022-09-10T13:17:40.953Z,101207.44
2022-09-10T13:20:30.985Z,101199.44
2022-09-10T13:23:04.704Z,101216.34
2022-09-10T13:25:39.873Z,101215.47
2022-09-10T13:28:41.020Z,101214.56
2022-09-10T13:31:19.547Z,101214.56
2022-09-10T13:34:03.948Z,101215.50
2022-09-10T13:36:38.515Z,101217.28
2022-09-10T13:39:30.605Z,101215.50
2022-09-10T13:42:12.991Z,101212.81
2022-09-10T13:45:27.265Z,101212.78
2022-09-10T13:48:06.490Z,101213.69
2022-09-10T13:50:41.711Z,101217.25
2022-09-10T13:53:16.152Z,101211.03
2022-09-10T13:56:00.054Z,101220.81
2022-09-10T13:58:34.869Z,101213.69
2022-09-10T14:01:13.656Z,101216.38
2022-09-10T14:03:44.996Z,101222.63
2022-09-10T14:06:19.438Z,101229.75
2022-09-10T14:08:55.151Z,101220.84
2022-09-10T14:11:29.266Z,101224.38
2022-09-10T14:14:06.217Z,101220.81
2022-09-10T14:16:41.012Z,101226.16
2022-09-10T14:19:17.872Z,101226.16
2022-09-10T14:21:50.496Z,101227.94
2022-09-10T14:24:48.366Z,101235.06
2022-09-10T14:27:25.400Z,101233.28
2022-09-10T14:29:56.498Z,101236.84
2022-09-10T14:32:34.537Z,101240.41
2022-09-10T14:35:43.192Z,101251.09
2022-09-10T14:38:31.957Z,101237.75
2022-09-10T14:41:08.522Z,101242.19
2022-09-10T14:43:42.710Z,101251.97
2022-09-10T14:46:33.159Z,101243.97
2022-09-10T14:49:12.149Z,101251.09
2022-09-10T14:51:43.124Z,101257.31
2022-09-10T14:54:15.066Z,101258.22
2022-09-10T14:56:48.814Z,101252.88
2022-09-10T14:59:27.911Z,101262.69
2022-09-10T15:01:57.602Z,101263.56
2022-09-10T15:04:30.243Z,101268.91
2022-09-10T15:07:02.858Z,101268.91
2022-09-10T15:09:33.340Z,101268.91
2022-09-10T15:12:06.330Z,101264.44
2022-09-10T15:14:39.695Z,101276.03
2022-09-10T15:17:09.491Z,101272.44
2022-09-10T15:19:39.187Z,101266.22
2022-09-10T15:22:09.179Z,101275.13
2022-09-10T15:24:52.724Z,101274.25
2022-09-10T15:27:28.713Z,101272.44
2022-09-10T15:30:01.210Z,101284.91
2022-09-10T15:32:30.980Z,101281.34
2022-09-10T15:35:01.266Z,101292.03
2022-09-10T15:37:31.187Z,101287.53
2022-09-10T15:40:01.378Z,101289.31
2022-09-10T15:42:31.124Z,101291.97
2022-09-10T15:45:03.446Z,101291.97
2022-09-10T15:47:33.764Z,101292.84
2022-09-10T15:50:04.126Z,101288.41
2022-09-10T15:52:33.836Z,101296.41
2022-09-10T15:55:03.522Z,101305.28
2022-09-10T15:57:33.835Z,101305.25
2022-09-10T16:00:07.373Z,101295.44
2022-09-10T16:02:37.256Z,101302.53
2022-09-10T16:05:07.778Z,101305.16
2022-09-10T16:07:37.479Z,101308.72
2022-09-10T16:10:09.293Z,101309.56
2022-09-10T16:12:39.164Z,101318.47
2022-09-10T16:15:12.419Z,101315.75
2022-09-10T16:17:42.432Z,101315.78
2022-09-10T16:20:13.172Z,101321.09
2022-09-10T16:22:42.975Z,101314.03
2022-09-10T16:25:13.100Z,101317.56
2022-09-10T16:27:43.507Z,101312.22
2022-09-10T16:30:16.655Z,101319.34
2022-09-10T16:32:46.430Z,101325.59
2022-09-10T16:35:16.419Z,101314.00
2022-09-10T16:37:46.145Z,101328.25
2022-09-10T16:40:19.385Z,101332.69
2022-09-10T16:42:49.665Z,101330.91
2022-09-10T16:45:21.978Z,101338.94
2022-09-10T16:47:51.945Z,101341.59
2022-09-10T16:50:23.262Z,101348.66
2022-09-10T16:52:52.956Z,101346.00
2022-09-10T16:55:25.617Z,101353.09
2022-09-10T16:57:55.346Z,101361.06
2022-09-10T17:00:28.336Z,101358.38
2022-09-10T17:02:58.610Z,101361.94
2022-09-10T17:05:29.030Z,101364.63
2022-09-10T17:08:00.445Z,101369.97
2022-09-10T17:10:30.188Z,101367.28
2022-09-10T17:13:00.074Z,101368.19
2022-09-10T17:15:32.536Z,101365.53
2022-09-10T17:18:03.584Z,101367.28
2022-09-10T17:20:33.959Z,101371.72
2022-09-10T17:23:03.910Z,101377.94
2022-09-10T17:25:33.663Z,101379.69
2022-09-10T17:28:03.822Z,101375.19
2022-09-10T17:30:36.121Z,101383.19
2022-09-10T17:33:10.867Z,101380.53
2022-09-10T17:35:40.664Z,101389.38
2022-09-10T17:38:11.385Z,101390.28
2022-09-10T17:40:41.251Z,101392.94
2022-09-10T17:43:11.810Z,101397.31
2022-09-10T17:45:44.354Z,101410.59
2022-09-10T17:48:15.426Z,101414.16
2022-09-10T17:50:48.804Z,101409.72
2022-09-10T17:53:19.270Z,101415.06
2022-09-10T17:55:49.382Z,101423.97
2022-09-10T17:58:19.331Z,101431.97
2022-09-10T18:00:51.994Z,101427.53
2022-09-10T18:03:21.715Z,101431.94
2022-09-10T18:05:51.508Z,101437.28
2022-09-10T18:08:22.143Z,101438.13
2022-09-10T18:10:52.668Z,101436.38
2022-09-10T18:13:23.309Z,101440.78
2022-09-10T18:15:55.638Z,101439.00
2022-09-10T18:18:25.474Z,101440.72
2022-09-10T18:20:56.528Z,101438.94
2022-09-10T18:23:26.272Z,101450.47
2022-09-10T18:25:55.993Z,101448.66
2022-09-10T18:28:25.712Z,101451.34
2022-09-10T18:30:58.393Z,101452.19
2022-09-10T18:33:28.076Z,101464.63
2022-09-10T18:35:57.755Z,101454.84
2022-09-10T18:38:29.544Z,101463.69
2022-09-10T18:40:59.277Z,101467.19
2022-09-10T18:43:28.981Z,101470.72
2022-09-10T18:46:05.350Z,101468.91
2022-09-10T18:48:36.315Z,101467.97
2022-09-10T18:51:08.679Z,101467.94
2022-09-10T18:53:38.802Z,101467.00
2022-09-10T18:56:10.045Z,101479.41
2022-09-10T18:58:40.417Z,101485.59
2022-09-10T19:01:14.675Z,101487.31
2022-09-10T19:03:46.541Z,101489.09
2022-09-10T19:06:18.857Z,101497.97
2022-09-10T19:08:53.800Z,101499.72
2022-09-10T19:11:24.576Z,101493.50
2022-09-10T19:13:56.184Z,101508.59
2022-09-10T19:16:30.713Z,101509.47
2022-09-10T19:19:02.328Z,101516.53
2022-09-10T19:21:32.947Z,101514.75
2022-09-10T19:24:03.845Z,101517.41
2022-09-10T19:26:36.577Z,101512.06
2022-09-10T19:29:07.173Z,101512.94
2022-09-10T19:31:39.879Z,101522.75
2022-09-10T19:34:10.832Z,101525.44
2022-09-10T19:36:40.806Z,101520.13
2022-09-10T19:39:12.801Z,101521.00
2022-09-10T19:41:44.643Z,101520.09
2022-09-10T19:44:18.385Z,101522.72
2022-09-10T19:46:50.904Z,101532.50
2022-09-10T19:49:20.642Z,101532.50
2022-09-10T19:51:50.369Z,101533.38
2022-09-10T19:54:20.041Z,101528.94
2022-09-10T19:56:49.910Z,101531.59
2022-09-10T19:59:19.574Z,101536.94
2022-09-10T20:01:51.909Z,101544.91
2022-09-10T20:04:21.646Z,101544.06
2022-09-10T20:06:51.426Z,101551.19
2022-09-10T20:09:21.257Z,101550.34
2022-09-10T20:11:51.224Z,101555.66
2022-09-10T20:14:21.149Z,101550.38
2022-09-10T20:16:54.804Z,101558.34
2022-09-10T20:19:24.491Z,101553.94
2022-09-10T20:21:54.189Z,101546.84
2022-09-10T20:24:24.031Z,101552.16
2022-09-10T20:26:54.354Z,101548.56
2022-09-10T20:29:25.599Z,101557.44
2022-09-10T20:31:58.174Z,101553.84
2022-09-10T20:34:28.207Z,101556.44
2022-09-10T20:36:58.245Z,101562.66
2022-09-10T20:39:27.949Z,101567.06
2022-09-10T20:41:57.883Z,101570.63
2022-09-10T20:44:28.016Z,101567.06
2022-09-10T20:47:00.339Z,101569.75
2022-09-10T20:49:30.022Z,101577.72
2022-09-10T20:51:59.863Z,101584.84
2022-09-10T20:54:29.571Z,101576.88
2022-09-10T20:56:59.533Z,101585.81
2022-09-10T20:59:29.328Z,101579.56
2022-09-10T21:02:01.793Z,101580.50
2022-09-10T21:04:31.532Z,101584.03
2022-09-10T21:07:01.271Z,101581.34
2022-09-10T21:09:30.943Z,101584.00
2022-09-10T21:12:00.620Z,101590.22
2022-09-10T21:14:31.695Z,101585.78
2022-09-10T21:17:03.970Z,101591.09
2022-09-10T21:19:33.799Z,101592.88
2022-09-10T21:22:03.492Z,101592.88
2022-09-10T21:24:33.186Z,101591.97
2022-09-10T21:27:03.270Z,101594.63
2022-09-10T21:29:32.942Z,101603.50
2022-09-10T21:32:05.705Z,101598.13
2022-09-10T21:34:35.895Z,101594.56
2022-09-10T21:37:05.644Z,101598.06
2022-09-10T21:39:35.567Z,101602.50
2022-09-10T21:42:05.353Z,101607.78
2022-09-10T21:44:35.064Z,101603.34
2022-09-10T21:47:11.132Z,101606.94
2022-09-10T21:49:40.789Z,101604.28
2022-09-10T21:52:10.580Z,101603.34
2022-09-10T21:54:40.330Z,101601.63
2022-09-10T21:57:11.880Z,101598.03
2022-09-10T21:59:41.793Z,101599.81
2022-09-10T22:02:17.070Z,101606.88
2022-09-10T22:04:47.059Z,101607.72
2022-09-10T22:07:16.742Z,101610.34
2022-09-10T22:09:46.724Z,101617.41
2022-09-10T22:12:16.598Z,101613.84
2022-09-10T22:14:46.660Z,101615.59
2022-09-10T22:17:19.589Z,101614.69
2022-09-10T22:19:51.929Z,101623.50
2022-09-10T22:22:21.739Z,101625.25
2022-09-10T22:24:52.296Z,101617.25
2022-09-10T22:27:22.137Z,101627.88
2022-09-10T22:29:51.859Z,101629.59
2022-09-10T22:32:24.171Z,101618.03
2022-09-10T22:34:54.252Z,101620.69
2022-09-10T22:37:26.996Z,101633.06
2022-09-10T22:39:56.707Z,101633.91
2022-09-10T22:42:26.663Z,101629.44
2022-09-10T22:44:57.503Z,101625.84
2022-09-10T22:47:30.201Z,101625.84
2022-09-10T22:50:04.346Z,101628.47
2022-09-10T22:52:34.526Z,101628.47
2022-09-10T22:55:04.273Z,101631.13
2022-09-10T22:57:34.008Z,101636.47
2022-09-10T23:00:04.120Z,101641.78
2022-09-10T23:02:39.631Z,101649.75
2022-09-10T23:05:10.052Z,101648.88
2022-09-10T23:07:39.881Z,101663.06
2022-09-10T23:10:10.566Z,101663.06
2022-09-10T23:12:40.511Z,101663.97
2022-09-10T23:15:11.661Z,101669.28
2022-09-10T23:17:44.364Z,101672.81
2022-09-10T23:20:14.184Z,101677.25
2022-09-10T23:22:44.063Z,101677.31
2022-09-10T23:25:13.782Z,101676.38
2022-09-10T23:27:43.540Z,101677.31
2022-09-10T23:30:16.201Z,101674.66
2022-09-10T23:32:49.118Z,101677.31
2022-09-10T23:35:18.986Z,101676.38
2022-09-10T23:37:48.683Z,101676.38
2022-09-10T23:40:20.997Z,101683.47
2022-09-10T23:42:52.856Z,101683.38
2022-09-10T23:45:22.829Z,101688.69
2022-09-10T23:47:55.542Z,101691.31
2022-09-10T23:50:25.351Z,101689.47
2022-09-10T23:52:55.198Z,101694.75
2022-09-10T23:55:25.005Z,101687.59
2022-09-10T23:57:54.861Z,101683.13
